Latest Coastal Weather Observations for Albion Park

IDN60701

Issued at 4:41 am EST Tuesday 28 June 2022 (issued every 10 minutes, with the page automatically refreshed every 10 minutes)

About coastal observations | Map of coastal stations | Coastal observations for NSW | Marine services | Other Formats
Station Details ID: 068241 Name: SHELLHARBOUR AIRPORT Lat: -34.56 Lon: 150.79 Height: 8.0 m
Data from the previous 72 hours. | See also: Recent months at Albion Park
Date/Time
EST
Wind Sea
Height
m
Swell Vis
km
Cloud Weather Temp
°C
Press
MSL
hPa
Rain since
9am
mm
Dir  Spd
kts
Gust
kts
Height
m
Period
s
Dir
28/04:30am SW 9 14 - - - - 10 Cloudy - 10.4 1029.7 0.0
28/04:00am WSW 11 17 - - - - 10 Partly cloudy - 10.7 1029.6 0.0
28/03:30am WSW 8 11 - - - - 10 Partly cloudy - 10.2 1029.8 0.0
28/03:00am SW 11 16 - - - - 10 Mostly cloudy - 10.5 1030.0 0.0
28/02:30am SW 11 23 - - - - 10 Partly cloudy - 10.6 1030.3 0.0
28/02:00am SW 12 17 - - - - 10 - - 10.7 1030.4 0.0
28/01:30am SW 13 22 - - - - 10 Partly cloudy - 10.7 1030.4 0.0
28/01:00am SW 12 16 - - - - 10 Partly cloudy - 10.6 1030.4 0.0
28/12:30am SW 12 17 - - - - 10 Partly cloudy - 10.4 1030.4 0.0
28/12:00am SW 12 21 - - - - 10 - - 10.5 1030.4 0.0
 
Date/Time
EST
Wind Sea
Height
m
Swell Vis
km
Cloud Weather Temp
°C
Press
MSL
hPa
Rain since
9am
mm
Dir  Spd
kts
Gust
kts
Height
m
Period
s
Dir
27/11:30pm SW 14 20 - - - - 10 - - 11.3 1030.7 0.0
27/11:00pm SW 12 19 - - - - 10 - - 11.4 1030.8 0.0
27/10:30pm SW 12 21 - - - - 10 Partly cloudy - 11.6 1030.7 0.0
27/10:00pm SSW 12 18 - - - - 10 Partly cloudy - 12.2 1030.6 0.0
27/09:30pm SW 12 21 - - - - 10 - - 11.7 1030.5 0.0
27/09:00pm SW 10 19 - - - - 10 Partly cloudy - 11.7 1030.3 0.0
27/08:30pm SW 9 15 - - - - 10 Partly cloudy - 11.6 1030.3 0.0
27/08:00pm SW 10 18 - - - - 10 - - 11.9 1030.1 0.0
27/07:30pm SSW 11 16 - - - - 10 Partly cloudy - 12.1 1030.0 0.0
27/07:00pm SW 9 16 - - - - 10 Partly cloudy - 12.0 1029.6 0.0
27/06:30pm SW 7 11 - - - - 10 - - 11.7 1029.3 0.0
27/06:00pm SW 9 14 - - - - 10 Mostly clear - 11.7 1029.3 0.0
27/05:30pm SW 8 12 - - - - 10 - - 11.4 1028.8 0.0
27/05:00pm SW 9 13 - - - - 10 - - 12.3 1028.5 0.0
27/04:30pm SSW 8 16 - - - - 10 - - 12.9 1028.2 0.0
27/04:00pm SSW 11 17 - - - - 10 - - 13.4 1028.2 0.0
27/03:30pm SSW 14 22 - - - - 10 - - 13.8 1027.8 0.0
27/03:00pm SSW 11 22 - - - - 10 - - 14.2 1027.5 0.0
27/02:30pm SSW 11 19 - - - - 10 Partly cloudy - 14.4 1027.3 0.0
27/02:00pm SSW 11 18 - - - - 10 Partly cloudy - 14.4 1027.6 0.0
27/01:30pm SSW 11 17 - - - - 10 Partly cloudy - 14.0 1027.6 0.0
27/01:00pm S 7 13 - - - - 10 Partly cloudy - 13.4 1027.3 0.0
27/12:30pm S 10 17 - - - - 10 Cloudy - 13.6 1027.3 0.0
27/12:00pm S 9 15 - - - - 10 Partly cloudy - 13.7 1027.3 0.0
27/11:30am SSW 11 17 - - - - 10 - - 14.8 1027.4 0.0
27/11:00am SSW 12 21 - - - - 10 Partly cloudy - 14.3 1027.6 0.0
27/10:30am SSW 8 14 - - - - 10 Partly cloudy - 14.4 1027.7 0.0
27/10:00am SSW 9 15 - - - - 10 Partly cloudy - 13.5 1027.8 0.0
27/09:30am SSW 10 15 - - - - 10 Partly cloudy - 13.3 1027.3 0.0
27/09:00am SW 11 20 - - - - 10 Mostly clear - 13.7 1027.0 0.0
27/08:30am WSW 9 13 - - - - 10 Partly cloudy - 12.5 1026.7 0.0
27/08:00am WSW 7 11 - - - - 10 Partly cloudy - 12.0 1026.3 0.0
27/07:30am SW 8 11 - - - - 10 - - 10.0 1026.1 0.0
27/07:00am WSW 10 12 - - - - 10 - - 10.3 1025.9 0.0
27/06:30am W 12 15 - - - - 10 - - 10.3 1025.4 0.0
27/06:00am WNW 13 16 - - - - 10 - - 10.8 1024.8 0.0
27/05:30am WNW 11 20 - - - - 10 - - 11.2 1024.3 0.0
27/05:00am W 10 17 - - - - 10 - - 11.5 1024.0 0.0
27/04:30am SW 5 9 - - - - 10 Partly cloudy - 10.2 1023.8 0.0
27/04:00am SW 4 6 - - - - 10 - - 10.8 1023.6 0.0
27/03:30am WSW 7 14 - - - - 10 - - 11.8 1023.7 0.0
27/03:00am W 12 17 - - - - 10 - - 12.6 1023.5 0.0
27/02:30am WNW 12 16 - - - - 10 Partly cloudy - 12.1 1023.6 0.0
27/02:00am WNW 14 16 - - - - 10 - - 12.2 1023.7 0.0
27/01:30am WNW 13 16 - - - - 10 - - 12.3 1023.8 0.0
27/01:00am W 15 18 - - - - 10 - - 12.8 1023.9 0.0
27/12:30am WNW 11 15 - - - - 10 - - 12.8 1024.1 0.0
27/12:00am W 11 15 - - - - 10 Cloudy - 13.1 1024.0 0.0
 
Date/Time
EST
Wind Sea
Height
m
Swell Vis
km
Cloud Weather Temp
°C
Press
MSL
hPa
Rain since
9am
mm
Dir  Spd
kts
Gust
kts
Height
m
Period
s
Dir
26/11:30pm W 10 13 - - - - 10 - - 12.9 1024.2 0.0
26/11:00pm W 13 17 - - - - 10 - - 13.1 1024.3 0.0
26/10:30pm W 13 19 - - - - 10 - - 13.3 1024.3 0.0
26/10:00pm W 13 17 - - - - 10 - - 13.4 1024.3 0.0
26/09:30pm W 10 14 - - - - 10 - - 13.0 1024.2 0.0
26/09:00pm W 8 11 - - - - 10 Mostly cloudy - 11.9 1024.4 0.0
26/08:30pm W 6 8 - - - - 10 - - 10.3 1024.6 0.0
26/08:00pm W 4 6 - - - - 10 - - 10.5 1024.5 0.0
26/07:30pm NE 1 3 - - - - 10 - - 10.4 1024.4 0.0
26/07:00pm CALM 0 0 - - - - 10 - - 11.4 1024.0 0.0
26/06:30pm CALM 0 0 - - - - 10 - - 11.7 1023.9 0.0
26/06:00pm CALM 0 4 - - - - 10 Cloudy - 12.7 1023.4 0.0
26/05:30pm W 2 4 - - - - 10 - - 12.4 1023.3 0.0
26/05:00pm CALM 0 0 - - - - 10 - - 13.2 1022.9 0.0
26/04:30pm CALM 0 0 - - - - 10 - - 14.4 1022.7 0.0
26/04:00pm W 6 9 - - - - 10 - - 16.6 1022.4 0.0
26/03:30pm WSW 5 6 - - - - 10 - - 17.5 1022.3 0.0
26/03:00pm WSW 7 11 - - - - 10 Cloudy - 18.1 1022.4 0.0
26/02:30pm WSW 11 17 - - - - 10 Partly cloudy - 18.3 1022.3 0.0
26/02:00pm SW 9 12 - - - - 10 Partly cloudy - 19.1 1022.2 0.0
26/01:30pm WSW 10 15 - - - - 10 Partly cloudy - 19.3 1022.3 0.0
26/01:00pm WSW 10 14 - - - - 10 - - 19.0 1022.5 0.0
26/12:30pm WSW 8 11 - - - - 10 Partly cloudy - 18.7 1022.8 0.0
26/12:00pm S 4 7 - - - - 10 Mostly clear - 18.3 1023.0 0.0
26/11:30am ENE 5 7 - - - - 10 - - 17.8 1023.3 0.0
26/11:00am ENE 6 8 - - - - 10 - - 17.4 1023.8 0.0
26/10:30am ENE 5 7 - - - - 10 - - 16.7 1024.2 0.0
26/10:00am ENE 5 7 - - - - 10 - - 15.1 1024.3 0.0
26/09:30am ENE 3 5 - - - - 10 - - 14.2 1024.4 0.0
26/09:00am CALM 0 0 - - - - 10 - - 12.2 1024.5 0.0
26/08:30am CALM 0 0 - - - - 10 - - 10.5 1024.6 0.0
26/08:00am CALM 0 0 - - - - 10 - - 7.7 1024.5 0.0
26/07:30am SW 3 6 - - - - 10 - - 5.6 1024.2 0.0
26/07:00am CALM 0 6 - - - - 10 - - 5.3 1024.3 0.0
26/06:30am CALM 0 0 - - - - 10 - - 6.0 1023.9 0.0
26/06:00am CALM 0 4 - - - - 10 - - 7.1 1023.6 0.0
26/05:30am NW 6 7 - - - - 10 - - 9.9 1023.3 0.0
26/05:00am NNW 7 9 - - - - 10 - - 11.1 1023.1 0.0
26/04:30am NNW 9 10 - - - - 10 - - 11.7 1022.8 0.0
26/04:00am NW 7 10 - - - - 10 - - 11.1 1022.6 0.0
26/03:30am NW 5 8 - - - - 10 - - 11.5 1022.6 0.0
26/03:00am NW 9 12 - - - - 10 - - 11.4 1022.6 0.0
26/02:30am W 3 7 - - - - 10 - - 10.0 1022.6 0.0
26/02:00am NW 11 13 - - - - 10 - - 11.7 1022.6 0.0
26/01:30am NW 9 12 - - - - 10 - - 12.0 1022.6 0.0
26/01:00am NNW 8 11 - - - - 10 - - 12.3 1022.6 0.0
26/12:30am NW 10 13 - - - - 10 - - 12.6 1022.5 0.0
26/12:00am NW 8 13 - - - - 10 - - 12.7 1022.5 0.0
 
Date/Time
EST
Wind Sea
Height
m
Swell Vis
km
Cloud Weather Temp
°C
Press
MSL
hPa
Rain since
9am
mm
Dir  Spd
kts
Gust
kts
Height
m
Period
s
Dir
25/11:30pm WNW 13 16 - - - - 10 - - 13.6 1022.4 0.0
25/11:00pm WNW 13 19 - - - - 10 - - 13.6 1022.6 0.0
25/10:30pm WNW 13 21 - - - - 10 - - 13.6 1022.4 0.0
25/10:00pm WNW 13 21 - - - - 10 - - 14.0 1022.6 0.0
25/09:30pm WNW 11 20 - - - - 10 - - 13.9 1022.7 0.0
25/09:00pm NW 7 15 - - - - 10 - - 13.0 1022.8 0.0
25/08:30pm NNW 6 14 - - - - 10 - - 13.5 1022.7 0.0
25/08:00pm WNW 6 10 - - - - 10 - - 13.5 1022.7 0.0
25/07:30pm W 9 14 - - - - 10 - - 14.0 1022.4 0.0
25/07:00pm W 4 7 - - - - 10 - - 11.1 1022.3 0.0
25/06:30pm W 5 9 - - - - 10 - - 12.3 1021.9 0.0
25/06:00pm W 4 6 - - - - 10 - - 12.9 1021.6 0.0
25/05:30pm SW 3 4 - - - - 10 - - 14.4 1021.2 0.0
25/05:00pm W 5 8 - - - - 10 - - 15.7 1020.9 0.0
25/04:30pm W 9 14 - - - - 10 - - 17.2 1020.6 0.0
25/04:00pm W 10 14 - - - - 10 - - 18.1 1020.3 0.0
25/03:30pm W 17 24 - - - - 10 - - 18.5 1019.9 0.0
25/03:00pm W 15 22 - - - - 10 - - 19.0 1019.7 0.0
25/02:35pm W 17 27 - - - - 10 - - 19.1 1019.8 0.0
25/02:30pm W 16 23 - - - - 10 - - 19.4 1019.8 0.0
25/02:00pm WNW 13 17 - - - - 10 - - 19.6 1019.7 0.0
25/01:30pm W 15 22 - - - - 10 - - 19.5 1019.6 0.0
25/01:00pm WSW 18 25 - - - - 10 Partly cloudy - 19.3 1019.8 0.0
25/12:30pm W 16 23 - - - - 10 Partly cloudy - 19.2 1019.8 0.0
25/12:00pm W 15 21 - - - - 10 - - 19.5 1020.1 0.0
25/11:30am W 12 18 - - - - 10 - - 19.2 1020.7 0.0
25/11:00am WNW 8 11 - - - - 10 - - 18.9 1021.1 0.0
25/10:30am W 9 13 - - - - 10 - - 18.3 1021.4 0.0
25/10:00am W 8 12 - - - - 10 - - 17.7 1021.4 0.0
25/09:30am NW 5 8 - - - - 10 - - 17.1 1021.3 0.0
25/09:00am NNW 4 5 - - - - 10 Mostly cloudy - 16.5 1021.1 0.0
25/08:30am CALM 0 0 - - - - 10 - - 14.1 1021.1 0.0
25/08:00am W 2 4 - - - - 10 - - 10.5 1021.0 0.0
25/07:30am WSW 2 4 - - - - 10 - - 8.7 1020.8 0.0
25/07:00am W 2 4 - - - - 10 - - 8.6 1020.5 0.0
25/06:30am SSW 4 9 - - - - 10 - - 9.7 1020.1 0.0
25/06:00am WNW 2 4 - - - - 10 Mostly cloudy - 9.8 1019.4 0.0
25/05:30am SW 1 5 - - - - 10 - - 10.1 1019.0 0.0
25/05:00am SW 3 5 - - - - 10 - - 10.7 1018.5 0.0

Other formats

Comma delimited format used in spreadsheet applications
http://www.bom.gov.au/fwo/IDN60701/IDN60701.95748.axf

JavaScript Object Notation format (JSON) in row-major order
http://www.bom.gov.au/fwo/IDN60701/IDN60701.95748.json

Data quality

Most of these data are generated automatically and are frequently updated. Quality checks on data are not normally performed. It is possible for incorrect values to appear. Refer to information at About Latest Weather Observations and please check the disclaimer before using these data.